OJAM/ADJ METAR and TAF weather

Enter ICAO airport designator
Station Type Date Time Source
OJAM METAR 2019/06/26 16:00 UTC NOAA

OJAM 261600Z 31010KT 6000 NSC 31/13 Q1013 NOSIG


Station Type Date Time Source
OJAM Decoded METAR 2019/06/26 16:00 UTC NOAA

Amman Airport, Jordan (OJAM) 31-59N 035-59E 768M
Jun 26, 2019 - 12:00 PM EDT / 2019.06.26 1600 UTC
Wind: from the NW (310 degrees) at 12 MPH (10 KT):0
Visibility: 3 mile(s):0
Temperature: 87 F (31 C)
Dew Point: 55 F (13 C)
Relative Humidity: 33%
Pressure (altimeter): 29.91 in. Hg (1013 hPa)
ob: OJAM 261600Z 31010KT 6000 NSC 31/13 Q1013 NOSIG
cycle: 16

Station Type Date Time Source
OJAM TAF 2019/06/26 12:15 UTC NOAA

TAF OJAM 261100Z 2612/2718 30012KT 6000 NSC

Example: see airport list